Carbon Hill, Illinois
Current Conditions -  °F | °C
As of 10:15 AM on Thursday 30 Oct 2014 (Local Time) from KC09 Reporting Station
Broken Clouds Broken Clouds  
Wind Chill: 43°   Ceiling: 12000
Heat Index: 43°   Visibility: 10mi
Dew Point: 38°   Wind: 3mph
Humidity: 83%   Direction: 180°S
Pressure: 30.13"   Gusts: NA
Location:  41.2967°N, 88.2846°W
Report Text: KC09 301515Z AUTO 18003KT 10SM BKN120 06/03 A3013 RMK AO2 T00610034
Loading
Personal Weather Stations






























Interactive Weather Map
Tropical Storm Tracking
New forecast layout! Learn more

10-Day Weather Forecast

Advertisements
Track Severe Weather on mobile